Time,TemperatureF,DewpointF,PressureIn,WindDirection,WindDirectionDegrees,WindSpeedMPH,WindSpeedGustMPH,Humidity,HourlyPrecipIn,Conditions,Clouds,dailyrainin,SoftwareType,DateUTC
2018-01-21 00:00:00,46.5,46.5,30.13,North,0,0.0,0.0,100,0.00,CLR,CLR,0.00,WeatherDisplay:10.33,2018-01-21 08:00:00,
2018-01-21 00:15:00,46.1,46.1,30.14,North,0,0.0,0.0,100,0.00,,,0.00,WeatherDisplay:10.33,2018-01-21 08:15:00,
2018-01-21 00:45:00,45.5,45.5,30.14,North,0,0.0,0.0,100,0.00,,,0.00,WeatherDisplay:10.33,2018-01-21 08:45:00,
2018-01-21 01:15:00,45.7,45.7,30.15,North,0,0.0,0.0,100,0.00,,,0.00,WeatherDisplay:10.33,2018-01-21 09:15:00,
2018-01-21 01:30:00,45.2,45.2,30.14,North,0,0.0,0.0,100,0.00,,,0.00,WeatherDisplay:10.33,2018-01-21 09:30:00,
2018-01-21 01:45:00,44.9,44.9,30.14,North,0,0.0,0.0,100,0.00,,,0.00,WeatherDisplay:10.33,2018-01-21 09:45:00,
2018-01-21 02:00:00,44.8,44.8,30.14,North,0,0.0,0.0,100,0.00,,,0.00,WeatherDisplay:10.33,2018-01-21 10:00:00,
2018-01-21 02:15:00,44.8,44.8,30.14,North,0,0.0,0.0,100,0.00,,,0.00,WeatherDisplay:10.33,2018-01-21 10:15:00,
2018-01-21 02:30:00,44.3,44.3,30.14,North,0,0.0,0.0,100,0.00,,,0.00,WeatherDisplay:10.33,2018-01-21 10:30:00,
2018-01-21 02:45:00,44.1,44.1,30.15,North,0,0.0,0.0,100,0.00,,,0.00,WeatherDisplay:10.33,2018-01-21 10:45:00,
2018-01-21 03:00:00,44.1,44.1,30.15,North,0,0.0,0.0,100,0.00,,,0.00,WeatherDisplay:10.33,2018-01-21 11:00:00,
2018-01-21 03:15:00,44.3,44.3,30.15,North,0,0.0,0.0,100,0.00,,,0.00,WeatherDisplay:10.33,2018-01-21 11:15:00,
2018-01-21 03:30:00,43.8,43.8,30.15,North,0,0.0,0.0,100,0.00,,,0.00,WeatherDisplay:10.33,2018-01-21 11:30:00,
2018-01-21 03:45:00,43.6,43.6,30.15,North,0,0.0,0.0,100,0.00,,,0.00,WeatherDisplay:10.33,2018-01-21 11:45:00,
2018-01-21 04:00:00,43.6,43.6,30.15,North,0,0.0,0.0,100,0.00,,,0.00,WeatherDisplay:10.33,2018-01-21 12:00:00,
2018-01-21 04:15:00,44.3,44.3,30.15,North,0,0.0,0.0,100,0.00,,,0.00,WeatherDisplay:10.33,2018-01-21 12:15:00,
2018-01-21 04:30:00,43.9,43.9,30.15,North,0,0.0,0.0,100,0.00,,,0.00,WeatherDisplay:10.33,2018-01-21 12:30:00,
2018-01-21 04:45:00,43.8,43.8,30.15,North,0,0.0,0.0,100,0.00,,,0.00,WeatherDisplay:10.33,2018-01-21 12:45:00,
2018-01-21 05:00:00,44.6,44.6,30.15,North,11,0.0,0.0,100,0.00,,,0.00,WeatherDisplay:10.33,2018-01-21 13:00:00,
2018-01-21 05:15:00,45.1,45.1,30.16,NNE,23,0.0,0.0,100,0.00,,,0.00,WeatherDisplay:10.33,2018-01-21 13:15:00,
2018-01-21 05:30:00,45.5,45.5,30.16,NNE,23,0.0,0.0,100,0.00,,,0.00,WeatherDisplay:10.33,2018-01-21 13:30:00,
2018-01-21 05:45:00,45.3,45.3,30.17,NNE,27,0.0,0.0,100,0.00,,,0.00,WeatherDisplay:10.33,2018-01-21 13:45:00,
2018-01-21 06:00:00,44.5,44.5,30.17,NE,45,0.0,0.0,100,0.00,OVC,OVC,0.00,WeatherDisplay:10.33,2018-01-21 14:00:00,
2018-01-21 06:15:00,44.1,44.1,30.18,NE,45,0.0,0.0,100,0.00,OVC,OVC,0.00,WeatherDisplay:10.33,2018-01-21 14:15:00,
2018-01-21 06:30:00,44.2,44.2,30.19,NE,45,0.0,0.0,100,0.00,OVC,OVC,0.00,WeatherDisplay:10.33,2018-01-21 14:30:00,
2018-01-21 06:45:00,44.8,44.8,30.19,NE,45,0.0,0.0,100,0.00,OVC,OVC,0.00,WeatherDisplay:10.33,2018-01-21 14:45:00,
2018-01-21 07:00:00,45.2,45.2,30.20,NE,45,0.0,0.0,100,0.00,BKN,BKN,0.00,WeatherDisplay:10.33,2018-01-21 15:00:00,
2018-01-21 07:15:00,45.5,45.5,30.21,NE,45,0.0,0.0,100,0.00,OVC,OVC,0.00,WeatherDisplay:10.33,2018-01-21 15:15:00,
2018-01-21 07:30:00,45.8,45.8,30.21,NE,45,0.0,0.0,100,0.00,OVC,OVC,0.00,WeatherDisplay:10.33,2018-01-21 15:30:00,
2018-01-21 07:45:00,46.4,46.4,30.22,NE,45,0.0,0.0,100,0.00,OVC,OVC,0.00,WeatherDisplay:10.33,2018-01-21 15:45:00,
2018-01-21 08:00:00,47.8,47.8,30.22,ENE,63,0.0,0.0,100,0.00,FEW,FEW,0.00,WeatherDisplay:10.33,2018-01-21 16:00:00,
2018-01-21 08:15:00,49.9,49.9,30.23,ENE,68,0.0,0.0,100,0.00,CLR,CLR,0.00,WeatherDisplay:10.33,2018-01-21 16:15:00,
2018-01-21 08:30:00,52.0,52.0,30.23,ENE,68,0.0,0.0,100,0.00,CLR,CLR,0.00,WeatherDisplay:10.33,2018-01-21 16:30:00,
2018-01-21 08:45:00,53.2,53.2,30.23,ENE,68,0.0,0.0,100,0.00,CLR,CLR,0.00,WeatherDisplay:10.33,2018-01-21 16:45:00,
2018-01-21 09:00:00,54.7,54.7,30.24,ENE,68,0.0,0.0,100,0.00,CLR,CLR,0.00,WeatherDisplay:10.33,2018-01-21 17:00:00,
2018-01-21 09:15:00,55.4,55.4,30.24,ENE,68,0.0,0.0,100,0.00,CLR,CLR,0.00,WeatherDisplay:10.33,2018-01-21 17:15:00,
2018-01-21 09:45:00,57.4,57.4,30.25,NE,45,0.0,0.0,100,0.00,FEW,FEW,0.00,WeatherDisplay:10.33,2018-01-21 17:45:00,
2018-01-21 10:00:00,58.0,58.0,30.26,NE,45,0.0,0.0,100,0.00,OVC,OVC,0.00,WeatherDisplay:10.33,2018-01-21 18:00:00,
2018-01-21 10:15:00,58.4,58.4,30.25,NE,45,0.0,0.0,100,0.00,OVC,OVC,0.00,WeatherDisplay:10.33,2018-01-21 18:15:00,
2018-01-21 10:30:00,58.6,58.6,30.25,ENE,70,0.0,0.0,100,0.00,OVC,OVC,0.00,WeatherDisplay:10.33,2018-01-21 18:30:00,
2018-01-21 10:45:00,59.2,59.2,30.24,SSW,206,0.0,0.0,100,0.00,OVC,OVC,0.00,WeatherDisplay:10.33,2018-01-21 18:45:00,
2018-01-21 11:00:00,59.9,59.9,30.24,West,263,0.0,0.0,100,0.00,OVC,OVC,0.00,WeatherDisplay:10.33,2018-01-21 19:00:00,
2018-01-21 11:15:00,60.7,60.7,30.23,WSW,251,0.0,0.0,100,0.00,CLR,CLR,0.00,WeatherDisplay:10.33,2018-01-21 19:15:00,
2018-01-21 11:30:00,61.1,61.1,30.22,SSW,205,0.0,3.0,100,0.00,CLR,CLR,0.00,WeatherDisplay:10.33,2018-01-21 19:30:00,
2018-01-21 11:45:00,61.2,61.2,30.22,SW,221,0.0,0.0,100,0.00,CLR,CLR,0.00,WeatherDisplay:10.33,2018-01-21 19:45:00,
2018-01-21 12:00:00,61.9,61.9,30.21,WSW,245,0.0,0.0,100,0.00,CLR,CLR,0.00,WeatherDisplay:10.33,2018-01-21 20:00:00,
2018-01-21 12:15:00,62.4,62.4,30.20,SSW,212,0.0,3.0,100,0.00,CLR,CLR,0.00,WeatherDisplay:10.33,2018-01-21 20:15:00,
2018-01-21 12:30:00,62.6,62.6,30.20,SW,220,0.0,3.0,100,0.00,CLR,CLR,0.00,WeatherDisplay:10.33,2018-01-21 20:30:00,
2018-01-21 12:45:00,62.7,62.7,30.19,SW,225,0.0,1.0,100,0.00,FEW,FEW,0.00,WeatherDisplay:10.33,2018-01-21 20:45:00,
2018-01-21 13:00:00,63.4,63.4,30.19,SW,221,0.0,5.0,100,0.00,CLR,CLR,0.00,WeatherDisplay:10.33,2018-01-21 21:00:00,
2018-01-21 13:15:00,63.5,63.5,30.19,SSW,212,1.0,9.0,100,0.00,CLR,CLR,0.00,WeatherDisplay:10.33,2018-01-21 21:15:00,
2018-01-21 13:45:00,63.1,63.1,30.18,SW,223,0.0,12.0,100,0.00,CLR,CLR,0.00,WeatherDisplay:10.33,2018-01-21 21:45:00,
2018-01-21 14:00:00,63.4,63.4,30.18,SW,226,2.0,9.0,100,0.00,CLR,CLR,0.00,WeatherDisplay:10.33,2018-01-21 22:00:00,
2018-01-21 14:15:00,63.4,63.4,30.18,NW,315,0.0,3.0,100,0.00,CLR,CLR,0.00,WeatherDisplay:10.33,2018-01-21 22:15:00,
2018-01-21 14:30:00,63.5,63.5,30.17,West,270,0.0,0.0,100,0.00,CLR,CLR,0.00,WeatherDisplay:10.33,2018-01-21 22:30:00,
2018-01-21 15:00:00,63.2,63.2,30.18,West,268,0.0,0.0,100,0.00,CLR,CLR,0.00,WeatherDisplay:10.33,2018-01-21 23:00:00,
2018-01-21 15:30:00,63.4,63.4,30.18,WNW,288,0.0,0.0,100,0.00,CLR,CLR,0.00,WeatherDisplay:10.33,2018-01-21 23:30:00,
2018-01-21 15:45:00,62.7,62.7,30.19,West,270,0.0,0.0,100,0.00,FEW,FEW,0.00,WeatherDisplay:10.33,2018-01-21 23:45:00,
2018-01-21 16:00:00,62.0,62.0,30.19,NW,304,0.0,0.0,100,0.00,CLR,CLR,0.00,WeatherDisplay:10.33,2018-01-22 00:00:00,
2018-01-21 16:15:00,61.6,61.6,30.19,NW,313,0.0,0.0,100,0.00,CLR,CLR,0.00,WeatherDisplay:10.33,2018-01-22 00:15:00,
2018-01-21 16:30:00,61.0,61.0,30.19,NW,315,0.0,0.0,100,0.00,FEW,FEW,0.00,WeatherDisplay:10.33,2018-01-22 00:30:00,
2018-01-21 16:45:00,60.3,60.3,30.19,NW,315,0.0,0.0,100,0.00,FEW,FEW,0.00,WeatherDisplay:10.33,2018-01-22 00:45:00,
2018-01-21 17:00:00,59.6,59.6,30.19,NW,315,0.0,0.0,100,0.00,SCT,SCT,0.00,WeatherDisplay:10.33,2018-01-22 01:00:00,
2018-01-21 17:15:00,58.4,58.4,30.20,NW,315,0.0,0.0,100,0.00,OVC,OVC,0.00,WeatherDisplay:10.33,2018-01-22 01:15:00,
2018-01-21 17:30:00,57.4,57.4,30.20,NW,315,0.0,0.0,100,0.00,OVC,OVC,0.00,WeatherDisplay:10.33,2018-01-22 01:30:00,
2018-01-21 17:45:00,56.9,56.9,30.21,NW,315,0.0,0.0,100,0.00,OVC,OVC,0.00,WeatherDisplay:10.33,2018-01-22 01:45:00,
2018-01-21 18:00:00,56.2,56.2,30.21,NW,315,0.0,0.0,100,0.00,,,0.00,WeatherDisplay:10.33,2018-01-22 02:00:00,
2018-01-21 18:15:00,55.7,55.7,30.22,NW,315,0.0,0.0,100,0.00,CLR,CLR,0.00,WeatherDisplay:10.33,2018-01-22 02:15:00,
2018-01-21 18:30:00,54.8,54.8,30.22,NW,315,0.0,0.0,100,0.00,CLR,CLR,0.00,WeatherDisplay:10.33,2018-01-22 02:30:00,
2018-01-21 18:45:00,54.1,54.1,30.22,NW,315,0.0,0.0,100,0.00,CLR,CLR,0.00,WeatherDisplay:10.33,2018-01-22 02:45:00,
2018-01-21 19:00:00,53.6,53.6,30.22,NW,315,0.0,0.0,100,0.00,CLR,CLR,0.00,WeatherDisplay:10.33,2018-01-22 03:00:00,
2018-01-21 19:15:00,52.9,52.9,30.22,NW,315,0.0,0.0,100,0.00,CLR,CLR,0.00,WeatherDisplay:10.33,2018-01-22 03:15:00,
2018-01-21 19:30:00,52.0,52.0,30.22,NW,315,0.0,0.0,100,0.00,CLR,CLR,0.00,WeatherDisplay:10.33,2018-01-22 03:30:00,
2018-01-21 19:45:00,51.0,51.0,30.22,NW,315,0.0,0.0,100,0.00,CLR,CLR,0.00,WeatherDisplay:10.33,2018-01-22 03:45:00,
2018-01-21 20:00:00,49.9,49.9,30.23,NW,315,0.0,0.0,100,0.00,CLR,CLR,0.00,WeatherDisplay:10.33,2018-01-22 04:00:00,
2018-01-21 20:15:00,49.2,49.2,30.22,NW,315,0.0,0.0,100,0.00,CLR,CLR,0.00,WeatherDisplay:10.33,2018-01-22 04:15:00,
2018-01-21 20:30:00,49.1,49.1,30.23,NW,315,0.0,0.0,100,0.00,CLR,CLR,0.00,WeatherDisplay:10.33,2018-01-22 04:30:00,
2018-01-21 20:45:00,48.5,48.5,30.22,NW,315,0.0,0.0,100,0.00,CLR,CLR,0.00,WeatherDisplay:10.33,2018-01-22 04:45:00,
2018-01-21 21:00:00,48.0,48.0,30.22,NW,315,0.0,0.0,100,0.00,CLR,CLR,0.00,WeatherDisplay:10.33,2018-01-22 05:00:00,
2018-01-21 21:15:00,47.8,47.8,30.22,NW,315,0.0,0.0,100,0.00,CLR,CLR,0.00,WeatherDisplay:10.33,2018-01-22 05:15:00,
2018-01-21 21:30:00,47.3,47.3,30.22,NW,315,0.0,0.0,100,0.00,CLR,CLR,0.00,WeatherDisplay:10.33,2018-01-22 05:30:00,
2018-01-21 21:45:00,47.3,47.3,30.21,NW,315,0.0,0.0,100,0.00,CLR,CLR,0.00,WeatherDisplay:10.33,2018-01-22 05:45:00,
2018-01-21 22:00:00,47.1,47.1,30.21,NW,315,0.0,0.0,100,0.00,CLR,CLR,0.00,WeatherDisplay:10.33,2018-01-22 06:00:00,
2018-01-21 22:15:00,46.8,46.8,30.21,NW,315,0.0,0.0,100,0.00,CLR,CLR,0.00,WeatherDisplay:10.33,2018-01-22 06:15:00,